Time;durP1;ratioP1;P1;durP2;ratioP2;P2;SDS_P1;SDS_P2;PMS_P1;PMS_P2;Temp;Humidity;BMP_temperature;BMP_pressure;BME280_temperature;BME280_humidity;BME280_pressure;Samples;Min_cycle;Max_cycle;Signal;HPM_P1;HPM_P2
2023/08/12 00:02:17;;;;;;;5.82;3.70;;;;;;;;;;6240949;22;20024;-88
2023/08/12 00:05:02;;;;;;;6.82;4.25;;;;;;;;;;6281944;22;20037;-89
2023/08/12 00:07:43;;;;;;;9.93;4.40;;;;;;;;;;6283894;22;20213;-90
2023/08/12 00:10:29;;;;;;;6.25;3.90;;;;;;;;;;6274470;22;20035;-90
2023/08/12 00:13:02;;;;;;;11.25;3.53;;;;;;;;;;6290418;22;20188;-90
2023/08/12 00:15:53;;;;;;;8.30;3.58;;;;;;;;;;6280532;22;20028;-90
2023/08/12 00:18:45;;;;;;;7.13;3.83;;;;;;;;;;6290774;22;20041;-90
2023/08/12 00:21:45;;;;;;;7.25;3.65;;;;;;;;;;6288934;22;20016;-90
2023/08/12 00:24:26;;;;;;;9.80;3.92;;;;;;;;;;6289788;22;20071;-90
2023/08/12 00:26:57;;;;;;;9.40;3.97;;;;;;;;;;6288341;22;20024;-90
2023/08/12 00:29:43;;;;;;;10.40;4.53;;;;;;;;;;6286892;22;20033;-91
2023/08/12 00:32:40;;;;;;;11.75;4.32;;;;;;;;;;6285912;22;20283;-90
2023/08/12 00:35:15;;;;;;;8.68;4.20;;;;;;;;;;6291127;22;20081;-87
2023/08/12 00:37:58;;;;;;;11.20;3.63;;;;;;;;;;6286924;22;20047;-87
2023/08/12 00:40:43;;;;;;;6.43;3.58;;;;;;;;;;6285569;22;20455;-87
2023/08/12 00:47:26;;;;;;;5.78;3.20;;;;;;;;;;6284330;22;20051;-87
2023/08/12 00:50:17;;;;;;;8.65;4.30;;;;;;;;;;6285601;22;20027;-86
2023/08/12 00:53:02;;;;;;;10.65;4.07;;;;;;;;;;6291590;22;20539;-87
2023/08/12 00:55:39;;;;;;;10.88;4.38;;;;;;;;;;6284710;22;20031;-87
2023/08/12 00:58:26;;;;;;;11.52;4.10;;;;;;;;;;6290379;22;20035;-87
2023/08/12 01:01:01;;;;;;;7.10;3.53;;;;;;;;;;6286790;22;20023;-87
2023/08/12 01:03:40;;;;;;;10.05;3.53;;;;;;;;;;6285360;22;20046;-87
2023/08/12 01:06:30;;;;;;;8.32;4.57;;;;;;;;;;6285431;22;20023;-87
2023/08/12 01:09:08;;;;;;;9.38;4.30;;;;;;;;;;6285480;22;20075;-87
2023/08/12 01:22:41;;;;;;;12.07;5.03;;;;;;;;;;4953617;22;29237973;-86
2023/08/12 01:25:26;;;;;;;11.98;4.43;;;;;;;;;;6229609;23;20048;-86
2023/08/12 01:28:18;;;;;;;;;;;;;;;;;;;;;
2023/08/12 01:31:11;;;;;;;7.72;4.10;;;;;;;;;;6202491;23;20021;-87
2023/08/12 01:33:51;;;;;;;10.52;5.68;;;;;;;;;;6202588;23;20092;-90
2023/08/12 01:36:27;;;;;;;16.48;5.45;;;;;;;;;;6205147;23;20090;-89
2023/08/12 01:42:48;;;;;;;8.48;3.85;;;;;;;;;;6205950;23;20024;-90
2023/08/12 01:45:28;;;;;;;11.13;4.93;;;;;;;;;;6205223;23;20044;-90
2023/08/12 01:48:16;;;;;;;12.13;6.10;;;;;;;;;;6205542;23;20021;-90
2023/08/12 01:51:05;;;;;;;13.38;6.65;;;;;;;;;;6182341;23;20067;-90
2023/08/12 01:53:39;;;;;;;16.35;7.07;;;;;;;;;;6204900;23;20067;-90
2023/08/12 01:56:11;;;;;;;16.77;7.05;;;;;;;;;;6205709;23;20021;-89
2023/08/12 01:58:51;;;;;;;19.80;8.48;;;;;;;;;;6205251;23;20051;-89
2023/08/12 02:01:43;;;;;;;15.45;6.20;;;;;;;;;;6203017;23;20391;-90
2023/08/12 02:04:37;;;;;;;;;;;;;;;;;;;;;
2023/08/12 02:07:11;;;;;;;18.33;7.00;;;;;;;;;;6208827;23;20071;-89
2023/08/12 02:10:04;;;;;;;17.83;6.90;;;;;;;;;;6205376;23;20025;-89
2023/08/12 02:13:04;;;;;;;14.98;7.55;;;;;;;;;;6205209;23;20025;-88
2023/08/12 02:15:47;;;;;;;14.15;7.78;;;;;;;;;;6207781;23;20031;-90
2023/08/12 02:18:34;;;;;;;16.60;7.00;;;;;;;;;;6208689;23;20044;-90
2023/08/12 02:21:16;;;;;;;14.00;8.02;;;;;;;;;;6211346;23;20013;-90
2023/08/12 02:23:52;;;;;;;20.42;7.72;;;;;;;;;;6203307;23;20068;-90
2023/08/12 02:26:40;;;;;;;18.05;6.88;;;;;;;;;;6204831;23;20017;-90
2023/08/12 02:29:57;;;;;;;12.25;6.60;;;;;;;;;;6171182;23;20027;-90
2023/08/12 02:32:38;;;;;;;13.82;7.85;;;;;;;;;;6198789;23;20025;-91
2023/08/12 02:35:20;;;;;;;;;;;;;;;;;;;;;
2023/08/12 02:38:12;;;;;;;;;;;;;;;;;;;;;
2023/08/12 02:40:41;;;;;;;20.15;8.57;;;;;;;;;;6202092;23;20444;-89
2023/08/12 02:43:40;;;;;;;;;;;;;;;;;;;;;
2023/08/12 02:46:19;;;;;;;19.35;9.25;;;;;;;;;;6201983;23;20057;-91
2023/08/12 02:48:55;;;;;;;18.80;10.65;;;;;;;;;;6200347;23;20025;-90
2023/08/12 02:51:36;;;;;;;;;;;;;;;;;;6195087;23;20056;-91
2023/08/12 02:54:17;;;;;;;21.77;9.95;;;;;;;;;;6198982;23;19927;-90
2023/08/12 02:56:56;;;;;;;19.27;9.40;;;;;;;;;;6197960;23;20109;-91
2023/08/12 02:59:45;;;;;;;19.17;10.38;;;;;;;;;;6196212;23;20021;-88
2023/08/12 03:02:35;;;;;;;26.88;11.00;;;;;;;;;;6144047;23;20036;-87
2023/08/12 03:05:48;;;;;;;26.52;10.82;;;;;;;;;;6144410;23;20013;-87
2023/08/12 03:08:41;;;;;;;21.42;11.80;;;;;;;;;;6124736;23;20014;-88
2023/08/12 03:11:29;;;;;;;22.55;12.48;;;;;;;;;;6144250;23;20133;-87
2023/08/12 03:14:07;;;;;;;25.48;13.65;;;;;;;;;;6143706;23;20029;-87
2023/08/12 03:17:01;;;;;;;24.77;12.98;;;;;;;;;;6145457;23;20093;-87
2023/08/12 03:19:46;;;;;;;22.50;13.63;;;;;;;;;;6148518;23;20116;-87
2023/08/12 03:22:47;;;;;;;20.50;12.52;;;;;;;;;;6140888;23;20325;-88
2023/08/12 03:25:44;;;;;;;30.55;14.85;;;;;;;;;;6139809;23;20328;-87
2023/08/12 03:29:00;;;;;;;24.05;13.85;;;;;;;;;;6134222;23;20304;-88
2023/08/12 03:34:51;;;;;;;28.05;14.77;;;;;;;;;;6151676;23;20100;-88
2023/08/12 03:38:17;;;;;;;;;;;;;;;;;;;;;
2023/08/12 03:41:18;;;;;;;24.67;15.02;;;;;;;;;;6162199;23;20022;-87
2023/08/12 03:44:21;;;;;;;24.30;14.45;;;;;;;;;;6155373;23;20021;-87
2023/08/12 03:47:06;;;;;;;25.40;14.82;;;;;;;;;;6141408;23;20021;-87
2023/08/12 03:50:28;;;;;;;;;;;;;;;;;;;;;
2023/08/12 03:53:16;;;;;;;;;;;;;;;;;;;;;
2023/08/12 03:56:04;;;;;;;31.23;15.70;;;;;;;;;;6257757;23;20397;-87
2023/08/12 03:58:49;;;;;;;33.90;16.30;;;;;;;;;;6250454;23;20027;-87
2023/08/12 04:01:36;;;;;;;23.42;13.93;;;;;;;;;;6255015;22;20035;-88
2023/08/12 04:04:22;;;;;;;29.95;16.20;;;;;;;;;;6249096;23;20010;-88
2023/08/12 04:17:53;;;;;;;32.30;16.27;;;;;;;;;;5577297;22;15276220;-87
2023/08/12 04:20:44;;;;;;;31.52;16.75;;;;;;;;;;6249990;23;20450;-90
2023/08/12 04:23:22;;;;;;;32.17;17.35;;;;;;;;;;6230349;23;20016;-89
2023/08/12 04:25:55;;;;;;;37.55;18.55;;;;;;;;;;6233111;23;20028;-89
2023/08/12 04:28:29;;;;;;;31.50;17.70;;;;;;;;;;6231556;23;20021;-89
2023/08/12 04:31:09;;;;;;;38.33;20.38;;;;;;;;;;6233861;23;20020;-89
2023/08/12 04:33:44;;;;;;;35.25;18.48;;;;;;;;;;6235624;23;20070;-91
2023/08/12 04:36:31;;;;;;;34.70;18.58;;;;;;;;;;6237145;23;20029;-90
2023/08/12 04:38:59;;;;;;;31.35;19.38;;;;;;;;;;6231912;23;20035;-90
2023/08/12 04:41:43;;;;;;;37.30;19.88;;;;;;;;;;6231702;23;20080;-88
2023/08/12 04:44:35;;;;;;;38.67;20.30;;;;;;;;;;6226641;23;20051;-88
2023/08/12 04:47:10;;;;;;;33.97;19.83;;;;;;;;;;6230106;23;20028;-87
2023/08/12 04:49:55;;;;;;;33.00;18.00;;;;;;;;;;6231049;23;20024;-87
2023/08/12 04:52:47;;;;;;;38.50;21.83;;;;;;;;;;6230786;23;20028;-87
2023/08/12 04:55:34;;;;;;;;;;;;;;;;;;;;;
2023/08/12 04:58:27;;;;;;;39.30;22.10;;;;;;;;;;6235241;23;20025;-87
2023/08/12 05:01:09;;;;;;;53.80;22.80;;;;;;;;;;6235864;23;20172;-87
2023/08/12 05:03:40;;;;;;;47.35;20.65;;;;;;;;;;6236406;23;20034;-87
2023/08/12 05:06:11;;;;;;;42.35;21.58;;;;;;;;;;6235683;23;20020;-87
2023/08/12 05:09:02;;;;;;;44.05;22.25;;;;;;;;;;6236391;23;20025;-87
2023/08/12 05:11:46;;;;;;;40.30;23.05;;;;;;;;;;6229825;23;20035;-87
2023/08/12 05:14:42;;;;;;;38.70;20.38;;;;;;;;;;6237029;23;20143;-87
2023/08/12 05:17:27;;;;;;;36.72;20.10;;;;;;;;;;6234268;23;20052;-86
2023/08/12 05:20:04;;;;;;;43.05;22.33;;;;;;;;;;6237624;23;20008;-87
2023/08/12 05:28:08;;;;;;;33.72;19.55;;;;;;;;;;6246708;22;20024;-86
2023/08/12 05:30:49;;;;;;;32.83;20.95;;;;;;;;;;6207151;23;20024;-87
2023/08/12 05:33:35;;;;;;;36.45;20.65;;;;;;;;;;6208336;23;20059;-85
2023/08/12 05:36:16;;;;;;;36.92;21.58;;;;;;;;;;6190498;23;20044;-86
2023/08/12 05:39:00;;;;;;;39.10;20.67;;;;;;;;;;6231812;23;20253;-86
2023/08/12 05:41:47;;;;;;;35.17;20.40;;;;;;;;;;6205431;23;20031;-86
2023/08/12 05:44:19;;;;;;;36.10;20.20;;;;;;;;;;6209040;23;20035;-86
2023/08/12 05:47:00;;;;;;;38.92;21.25;;;;;;;;;;6204941;23;20025;-87
2023/08/12 05:49:45;;;;;;;39.30;21.15;;;;;;;;;;6235198;23;20091;-87
2023/08/12 05:52:32;;;;;;;37.58;18.63;;;;;;;;;;6227638;23;20283;-86
2023/08/12 05:55:17;;;;;;;34.78;19.52;;;;;;;;;;6208652;23;20020;-86
2023/08/12 05:57:49;;;;;;;34.40;19.23;;;;;;;;;;6230172;23;20024;-86
2023/08/12 06:16:48;;;;;;;;;;;;;;;;;;;;;
2023/08/12 06:29:33;;;;;;;21.13;14.32;;;;;;;;;;6337121;22;20041;-87
2023/08/12 06:32:37;;;;;;;27.30;11.98;;;;;;;;;;6304365;22;20050;-88
2023/08/12 06:35:35;;;;;;;18.65;10.75;;;;;;;;;;6336275;22;20018;-89
2023/08/12 06:43:43;;;;;;;14.85;10.20;;;;;;;;;;6300908;22;20024;-88
2023/08/12 06:46:35;;;;;;;19.17;11.82;;;;;;;;;;6302667;22;20119;-87
2023/08/12 06:49:17;;;;;;;23.02;11.27;;;;;;;;;;6325650;22;20022;-88
2023/08/12 06:55:08;;;;;;;17.20;11.15;;;;;;;;;;6328879;22;20033;-89
2023/08/12 06:57:56;;;;;;;15.48;10.60;;;;;;;;;;6333354;22;20011;-88
2023/08/12 07:00:58;;;;;;;;;;;;;;;;;;;;;
2023/08/12 07:56:38;;;;;;;21.48;12.82;;;;;;;;;;6278493;22;20007;-89
2023/08/12 07:59:25;;;;;;;27.25;13.65;;;;;;;;;;6302108;22;20083;-89
2023/08/12 08:02:20;;;;;;;22.52;13.90;;;;;;;;;;6276122;22;20019;-89
2023/08/12 08:07:55;;;;;;;23.47;12.63;;;;;;;;;;6299497;22;20006;-89
2023/08/12 08:10:47;;;;;;;;;;;;;;;;;;6311735;22;20011;-89
2023/08/12 08:13:52;;;;;;;19.48;11.38;;;;;;;;;;6310422;22;19973;-89
2023/08/12 08:16:54;;;;;;;19.83;11.80;;;;;;;;;;6294217;22;20011;-88
2023/08/12 08:19:36;;;;;;;20.05;11.63;;;;;;;;;;6309376;22;20003;-88
2023/08/12 08:22:22;;;;;;;19.55;11.13;;;;;;;;;;6256983;22;20008;-88
2023/08/12 08:25:07;;;;;;;18.05;11.25;;;;;;;;;;6270835;22;20054;-89
2023/08/12 08:27:51;;;;;;;18.85;11.50;;;;;;;;;;6269031;22;20004;-88
2023/08/12 08:30:38;;;;;;;22.55;12.13;;;;;;;;;;6266990;22;20016;-88
2023/08/12 08:33:30;;;;;;;19.67;13.40;;;;;;;;;;6271085;22;20023;-88
2023/08/12 08:36:14;;;;;;;26.52;12.68;;;;;;;;;;6270325;22;20016;-88
2023/08/12 08:39:00;;;;;;;22.33;13.68;;;;;;;;;;6270331;22;20020;-88
2023/08/12 08:41:49;;;;;;;20.58;12.93;;;;;;;;;;6270737;22;20051;-90
2023/08/12 08:45:00;;;;;;;23.80;12.82;;;;;;;;;;6248754;22;20022;-87
2023/08/12 08:53:25;;;;;;;28.42;14.13;;;;;;;;;;6266017;22;20019;-89
2023/08/12 08:56:08;;;;;;;30.67;15.77;;;;;;;;;;6280519;22;20031;-88
2023/08/12 09:06:39;;;;;;;26.97;18.37;;;;;;;;;;6302382;22;20087;-88
2023/08/12 09:09:23;;;;;;;27.23;18.40;;;;;;;;;;6303861;22;20055;-89
2023/08/12 09:12:07;;;;;;;29.30;17.55;;;;;;;;;;6305099;22;20019;-88
2023/08/12 09:14:48;;;;;;;29.40;18.35;;;;;;;;;;6304541;22;20011;-90
2023/08/12 09:17:38;;;;;;;28.90;19.05;;;;;;;;;;6304246;22;20050;-89
2023/08/12 09:20:32;;;;;;;29.23;17.95;;;;;;;;;;6301767;22;20038;-88
2023/08/12 09:26:51;;;;;;;26.05;16.15;;;;;;;;;;6304829;22;20072;-90
2023/08/12 09:29:55;;;;;;;34.45;18.20;;;;;;;;;;6303296;22;20265;-88
2023/08/12 09:40:36;;;;;;;31.47;19.13;;;;;;;;;;6331573;22;20059;-89
2023/08/12 10:52:33;;;;;;;41.45;27.88;;;;;;;;;;6304613;22;20054;-89
2023/08/12 10:55:23;;;;;;;40.70;28.83;;;;;;;;;;6303562;22;20011;-90
2023/08/12 11:03:20;;;;;;;40.42;25.77;;;;;;;;;;6302264;22;20430;-89
2023/08/12 11:06:03;;;;;;;40.42;26.90;;;;;;;;;;6276028;22;20031;-88
2023/08/12 11:16:38;;;;;;;36.10;23.73;;;;;;;;;;6304281;22;20003;-89
2023/08/12 11:22:09;;;;;;;52.27;23.00;;;;;;;;;;6286183;22;20003;-88
2023/08/12 11:27:26;;;;;;;41.93;24.57;;;;;;;;;;6281363;22;20037;-87
2023/08/12 11:32:47;;;;;;;33.73;21.03;;;;;;;;;;6330957;22;20064;-89
2023/08/12 11:35:47;;;;;;;25.70;17.45;;;;;;;;;;6332881;22;20435;-88
2023/08/12 11:46:16;;;;;;;21.33;15.30;;;;;;;;;;6278001;22;20007;-89
2023/08/12 12:32:28;;;;;;;25.52;16.92;;;;;;;;;;6267573;22;20008;-85
2023/08/12 12:35:23;;;;;;;20.95;14.07;;;;;;;;;;6303656;22;20010;-86
2023/08/12 12:38:12;;;;;;;20.48;14.45;;;;;;;;;;6330258;22;20124;-86
2023/08/12 12:41:18;;;;;;;16.20;11.32;;;;;;;;;;6309519;22;20053;-87
2023/08/12 12:44:12;;;;;;;15.35;10.63;;;;;;;;;;6317131;22;20298;-86
2023/08/12 12:46:55;;;;;;;13.05;9.70;;;;;;;;;;6293911;22;20063;-86
2023/08/12 12:49:55;;;;;;;11.07;8.93;;;;;;;;;;6293263;22;20041;-86
2023/08/12 12:52:39;;;;;;;12.82;8.48;;;;;;;;;;6291146;22;20016;-85
2023/08/12 12:55:30;;;;;;;14.35;8.35;;;;;;;;;;6292014;22;20023;-86
2023/08/12 12:58:17;;;;;;;10.20;8.55;;;;;;;;;;6288393;22;20246;-86
2023/08/12 13:01:02;;;;;;;13.02;8.18;;;;;;;;;;6290908;22;20050;-86
2023/08/12 13:04:09;;;;;;;12.00;8.32;;;;;;;;;;6288603;22;20082;-87
2023/08/12 13:07:04;;;;;;;10.82;7.63;;;;;;;;;;6291362;22;20016;-86
2023/08/12 13:09:52;;;;;;;8.13;7.30;;;;;;;;;;6258516;22;20020;-85
2023/08/12 13:12:46;;;;;;;10.18;7.53;;;;;;;;;;6259453;23;20024;-86
2023/08/12 13:15:48;;;;;;;9.07;6.40;;;;;;;;;;6258753;22;20016;-87
2023/08/12 13:34:14;;;;;;;6.00;5.25;;;;;;;;;;6284753;22;20078;-85
2023/08/12 13:37:22;;;;;;;10.23;5.07;;;;;;;;;;6303578;22;20023;-87
2023/08/12 13:40:41;;;;;;;6.45;5.15;;;;;;;;;;6316412;22;20231;-87
2023/08/12 13:43:32;;;;;;;5.22;4.65;;;;;;;;;;6326148;22;20015;-86
2023/08/12 13:46:28;;;;;;;12.57;5.70;;;;;;;;;;6329210;22;20003;-86
2023/08/12 13:49:11;;;;;;;6.88;5.53;;;;;;;;;;6302448;22;20036;-88
2023/08/12 13:51:55;;;;;;;5.75;5.13;;;;;;;;;;6328379;22;20022;-87
2023/08/12 13:54:46;;;;;;;6.60;5.80;;;;;;;;;;6301126;22;20457;-87
2023/08/12 13:58:01;;;;;;;;;;;;;;;;;;;;;
2023/08/12 14:00:57;;;;;;;6.50;5.65;;;;;;;;;;6324113;22;20343;-86
2023/08/12 14:04:06;;;;;;;6.57;5.50;;;;;;;;;;6324638;22;20033;-86
2023/08/12 14:06:47;;;;;;;7.85;4.93;;;;;;;;;;6300310;22;20043;-87
2023/08/12 14:09:30;;;;;;;7.28;6.28;;;;;;;;;;6300240;22;20384;-85
2023/08/12 14:12:12;;;;;;;7.15;6.10;;;;;;;;;;6324205;22;20006;-86
2023/08/12 14:14:59;;;;;;;9.93;6.00;;;;;;;;;;6295515;22;20011;-87
2023/08/12 14:18:18;;;;;;;5.07;4.53;;;;;;;;;;6322472;22;20041;-86
2023/08/12 14:21:50;;;;;;;;;;;;;;;;;;;;;
2023/08/12 14:24:57;;;;;;;0.40;0.38;;;;;;;;;;6321753;22;20117;-87
2023/08/12 14:28:14;;;;;;;0.40;0.32;;;;;;;;;;6259012;23;20059;-87
2023/08/12 14:31:18;;;;;;;2.13;0.50;;;;;;;;;;6216471;23;20036;-87
2023/08/12 14:34:23;;;;;;;3.78;0.32;;;;;;;;;;6230567;23;20188;-86
2023/08/12 14:47:44;;;;;;;3.90;0.85;;;;;;;;;;6258763;22;20159;-86
2023/08/12 14:58:01;;;;;;;0.45;0.30;;;;;;;;;;6175392;23;20020;-88
2023/08/12 15:00:56;;;;;;;0.90;0.38;;;;;;;;;;6271070;22;20019;-89
2023/08/12 15:03:39;;;;;;;1.40;0.40;;;;;;;;;;6297892;22;20038;-88
2023/08/12 15:06:47;;;;;;;1.30;0.50;;;;;;;;;;6317480;22;20041;-88
2023/08/12 15:09:51;;;;;;;0.50;0.40;;;;;;;;;;6287877;22;20059;-88
2023/08/12 15:13:07;;;;;;;2.42;0.40;;;;;;;;;;6301013;22;20027;-88
2023/08/12 15:15:47;;;;;;;0.95;0.45;;;;;;;;;;6325462;22;20027;-89
2023/08/12 15:18:41;;;;;;;2.75;0.80;;;;;;;;;;6304807;22;20008;-89
2023/08/12 15:25:23;;;;;;;0.40;0.30;;;;;;;;;;6325624;22;20059;-89
2023/08/12 15:28:19;;;;;;;0.20;0.15;;;;;;;;;;6325531;22;20027;-90
2023/08/12 15:31:22;;;;;;;;;;;;;;;;;;;;;
2023/08/12 15:34:15;;;;;;;1.92;0.43;;;;;;;;;;6320050;22;20132;-90
2023/08/12 15:36:51;;;;;;;0.60;0.40;;;;;;;;;;6324215;22;20035;-88
2023/08/12 15:42:49;;;;;;;0.82;0.38;;;;;;;;;;6321243;22;20053;-89
2023/08/12 15:45:44;;;;;;;2.45;0.52;;;;;;;;;;6296536;22;20116;-88
2023/08/12 15:48:54;;;;;;;1.63;0.38;;;;;;;;;;6286804;22;20272;-89
2023/08/12 15:52:00;;;;;;;0.40;0.40;;;;;;;;;;6321267;22;20075;-89
2023/08/12 15:54:48;;;;;;;0.47;0.30;;;;;;;;;;6251746;22;20086;-88
2023/08/12 15:58:09;;;;;;;4.50;0.32;;;;;;;;;;6297147;22;20022;-87
2023/08/12 16:01:01;;;;;;;2.72;0.80;;;;;;;;;;6311354;22;20238;-86
2023/08/12 16:12:19;;;;;;;0.40;0.40;;;;;;;;;;6298517;22;20033;-87
2023/08/12 16:23:10;;;;;;;0.88;0.60;;;;;;;;;;6297139;22;20018;-88
2023/08/12 16:26:06;;;;;;;3.83;0.80;;;;;;;;;;6318036;22;20019;-87
2023/08/12 16:28:56;;;;;;;0.77;0.40;;;;;;;;;;6266223;22;20022;-87
2023/08/12 16:31:43;;;;;;;1.40;1.08;;;;;;;;;;6292497;22;20023;-86
2023/08/12 16:34:43;;;;;;;2.72;1.20;;;;;;;;;;6291494;22;20049;-87
2023/08/12 16:41:56;;;;;;;0.98;0.70;;;;;;;;;;6243166;23;20020;-87
2023/08/12 16:44:51;;;;;;;3.08;1.02;;;;;;;;;;6264687;22;20027;-87
2023/08/12 16:47:53;;;;;;;2.85;1.38;;;;;;;;;;6277109;22;20030;-88
2023/08/12 16:50:44;;;;;;;2.63;0.90;;;;;;;;;;6293365;22;20361;-87
2023/08/12 16:57:31;;;;;;;1.08;0.82;;;;;;;;;;6316365;22;20018;-88
2023/08/12 17:00:21;;;;;;;3.20;0.80;;;;;;;;;;6303953;22;20034;-90
2023/08/12 17:06:43;;;;;;;1.75;0.68;;;;;;;;;;6324094;22;20073;-89
2023/08/12 17:09:37;;;;;;;;;;;;;;;;;;;;;
2023/08/12 17:13:00;;;;;;;2.10;0.68;;;;;;;;;;6321157;22;20055;-89
2023/08/12 17:15:52;;;;;;;4.53;0.90;;;;;;;;;;6322514;22;20022;-86
2023/08/12 17:18:43;;;;;;;1.58;0.80;;;;;;;;;;6291900;22;20014;-86
2023/08/12 17:21:45;;;;;;;1.75;0.70;;;;;;;;;;6232297;23;20012;-87
2023/08/12 17:44:20;;;;;;;3.30;0.80;;;;;;;;;;6262991;22;20223;-87
2023/08/12 17:47:15;;;;;;;;;;;;;;;;;;;;;
2023/08/12 17:50:13;;;;;;;4.82;1.25;;;;;;;;;;6276275;22;20035;-87
2023/08/12 17:53:26;;;;;;;3.08;1.30;;;;;;;;;;6278512;22;20023;-87
2023/08/12 17:56:48;;;;;;;2.95;1.13;;;;;;;;;;6268458;22;20003;-87
2023/08/12 17:59:44;;;;;;;3.40;1.25;;;;;;;;;;6287837;22;20019;-87
2023/08/12 18:02:43;;;;;;;;;;;;;;;;;;;;;
2023/08/12 18:05:32;;;;;;;3.55;1.20;;;;;;;;;;6264167;22;20091;-87
2023/08/12 18:08:31;;;;;;;6.78;1.25;;;;;;;;;;6256111;22;20061;-88
2023/08/12 18:11:05;;;;;;;6.45;1.35;;;;;;;;;;6251952;22;20050;-90
2023/08/12 18:13:35;;;;;;;4.60;1.88;;;;;;;;;;6254141;22;20024;-86
2023/08/12 18:16:30;;;;;;;5.97;1.45;;;;;;;;;;6253534;22;20047;-88
2023/08/12 18:19:10;;;;;;;2.63;1.33;;;;;;;;;;6277583;22;20063;-88
2023/08/12 18:21:54;;;;;;;8.57;1.70;;;;;;;;;;6252831;22;20097;-90
2023/08/12 18:24:25;;;;;;;4.95;1.58;;;;;;;;;;6254886;22;20241;-88
2023/08/12 18:26:53;;;;;;;6.22;1.50;;;;;;;;;;6255015;22;20171;-90
2023/08/12 18:29:32;;;;;;;7.70;1.67;;;;;;;;;;6254256;22;20035;-89
2023/08/12 18:32:06;;;;;;;3.67;1.58;;;;;;;;;;6253448;22;20050;-89
2023/08/12 18:34:51;;;;;;;8.25;1.90;;;;;;;;;;6255217;22;20028;-90
2023/08/12 18:37:19;;;;;;;4.78;1.13;;;;;;;;;;6256737;22;20024;-90
2023/08/12 18:39:51;;;;;;;4.13;1.33;;;;;;;;;;6251552;22;20055;-88
2023/08/12 18:42:19;;;;;;;6.97;1.70;;;;;;;;;;6282342;22;20031;-88
2023/08/12 18:44:52;;;;;;;6.15;1.80;;;;;;;;;;6281056;22;20037;-90
2023/08/12 18:47:35;;;;;;;6.57;1.60;;;;;;;;;;6258905;22;20023;-89
2023/08/12 18:50:14;;;;;;;5.90;1.70;;;;;;;;;;6282783;22;20063;-89
2023/08/12 18:52:46;;;;;;;4.25;1.30;;;;;;;;;;6261682;22;20071;-89
2023/08/12 18:55:15;;;;;;;9.20;1.60;;;;;;;;;;6287827;22;20030;-90
2023/08/12 18:57:43;;;;;;;5.32;1.70;;;;;;;;;;6258835;22;20059;-88
2023/08/12 19:00:20;;;;;;;5.70;1.92;;;;;;;;;;6259382;22;20020;-89
2023/08/12 19:02:54;;;;;;;5.15;1.63;;;;;;;;;;6260621;22;20078;-87
2023/08/12 19:05:48;;;;;;;3.42;1.50;;;;;;;;;;6264344;22;20017;-87
2023/08/12 19:09:21;;;;;;;;;;;;;;;;;;;;;
2023/08/12 19:19:45;;;;;;;7.35;1.70;;;;;;;;;;5909213;24;20191;-88
2023/08/12 19:26:24;;;;;;;6.22;1.35;;;;;;;;;;5866532;24;20041;-90
2023/08/12 19:29:21;;;;;;;10.25;2.95;;;;;;;;;;5899967;23;20036;-90
2023/08/12 19:35:51;;;;;;;9.70;2.28;;;;;;;;;;5949107;23;20023;-88
2023/08/12 19:38:41;;;;;;;7.25;3.10;;;;;;;;;;5952345;23;20028;-89
2023/08/12 19:41:26;;;;;;;6.18;2.28;;;;;;;;;;5975262;23;20012;-90
2023/08/12 19:44:33;;;;;;;5.20;2.17;;;;;;;;;;5996330;24;20110;-89
2023/08/12 19:47:02;;;;;;;6.38;2.45;;;;;;;;;;6101026;23;20034;-89
2023/08/12 19:49:36;;;;;;;8.38;2.08;;;;;;;;;;6097941;23;20026;-89
2023/08/12 19:52:06;;;;;;;12.57;2.28;;;;;;;;;;6070111;23;20152;-89
2023/08/12 19:54:53;;;;;;;8.38;2.05;;;;;;;;;;6077495;23;20027;-89
2023/08/12 19:57:20;;;;;;;11.98;2.25;;;;;;;;;;6100458;23;20053;-89
2023/08/12 20:00:10;;;;;;;8.23;2.25;;;;;;;;;;6114034;23;20028;-90
2023/08/12 20:02:58;;;;;;;7.63;2.15;;;;;;;;;;6097886;23;20146;-89
2023/08/12 20:05:28;;;;;;;11.07;2.08;;;;;;;;;;6098088;23;20219;-89
2023/08/12 20:07:59;;;;;;;10.25;2.40;;;;;;;;;;6072127;23;20237;-89
2023/08/12 20:10:30;;;;;;;8.32;3.10;;;;;;;;;;6072887;23;20089;-89
2023/08/12 20:13:06;;;;;;;8.73;2.50;;;;;;;;;;6096091;23;20022;-89
2023/08/12 20:15:34;;;;;;;;;;;;;;;;;;6117299;23;20062;-89
2023/08/12 20:18:03;;;;;;;9.50;2.50;;;;;;;;;;6185658;23;19943;-88
2023/08/12 20:20:36;;;;;;;6.47;2.92;;;;;;;;;;6158180;23;20029;-89
2023/08/12 20:23:04;;;;;;;11.85;2.85;;;;;;;;;;6182715;23;20232;-89
2023/08/12 20:25:35;;;;;;;10.60;3.45;;;;;;;;;;6160215;23;20350;-89
2023/08/12 20:28:15;;;;;;;11.88;3.35;;;;;;;;;;6204651;23;20028;-90
2023/08/12 20:38:10;;;;;;;6.55;3.03;;;;;;;;;;6208402;23;20020;-89
2023/08/12 20:44:32;;;;;;;11.18;3.22;;;;;;;;;;6063663;23;20389;-90
2023/08/12 20:57:53;;;;;;;8.18;2.90;;;;;;;;;;6291502;22;20015;-88
2023/08/12 21:00:50;;;;;;;12.93;3.42;;;;;;;;;;6296783;22;20042;-89
2023/08/12 21:04:26;;;;;;;17.35;3.88;;;;;;;;;;6288554;22;20043;-89
2023/08/12 21:22:39;;;;;;;20.42;4.68;;;;;;;;;;6314989;22;20029;-89
2023/08/12 21:25:25;;;;;;;;;;;;;;;;;;;;;
2023/08/12 21:28:06;;;;;;;15.18;3.92;;;;;;;;;;6318913;22;20026;-89
2023/08/12 21:30:37;;;;;;;8.93;3.70;;;;;;;;;;6288861;22;20094;-89
2023/08/12 21:33:23;;;;;;;9.27;3.95;;;;;;;;;;6291529;22;20035;-87
2023/08/12 21:36:11;;;;;;;11.05;3.72;;;;;;;;;;6312706;22;20153;-87
2023/08/12 21:38:53;;;;;;;6.15;3.58;;;;;;;;;;6297325;22;20034;-87
2023/08/12 21:41:47;;;;;;;10.30;4.63;;;;;;;;;;6327323;22;20007;-87
2023/08/12 21:44:26;;;;;;;56.72;26.40;;;;;;;;;;6297001;22;20147;-86
2023/08/12 21:47:05;;;;;;;40.30;19.85;;;;;;;;;;6294071;22;20073;-86
2023/08/12 21:49:48;;;;;;;111.13;56.72;;;;;;;;;;6295153;22;20147;-86
2023/08/12 21:52:22;;;;;;;24.60;12.63;;;;;;;;;;6294590;22;20020;-86
2023/08/12 21:55:08;;;;;;;74.10;39.75;;;;;;;;;;6296263;22;20019;-86
2023/08/12 21:58:04;;;;;;;;;;;;;;;;;;;;;
2023/08/12 22:01:10;;;;;;;13.43;6.07;;;;;;;;;;6320944;22;20074;-89
2023/08/12 22:03:50;;;;;;;10.00;3.50;;;;;;;;;;6320611;22;20027;-90
2023/08/12 22:06:34;;;;;;;7.47;3.50;;;;;;;;;;6320389;22;20019;-89
2023/08/12 22:09:02;;;;;;;14.75;4.18;;;;;;;;;;6294340;22;20019;-89
2023/08/12 22:11:47;;;;;;;8.15;3.50;;;;;;;;;;6300285;22;20106;-88
2023/08/12 22:14:35;;;;;;;7.18;3.50;;;;;;;;;;6296066;22;20030;-89
2023/08/12 22:17:05;;;;;;;15.77;3.70;;;;;;;;;;6321858;22;20027;-88
2023/08/12 22:19:49;;;;;;;11.77;3.33;;;;;;;;;;6296920;22;20062;-88
2023/08/12 22:22:28;;;;;;;14.90;3.17;;;;;;;;;;6317613;22;20030;-88
2023/08/12 22:25:00;;;;;;;10.70;3.30;;;;;;;;;;6320679;22;20071;-89
2023/08/12 22:27:28;;;;;;;6.60;2.80;;;;;;;;;;6294484;22;20019;-89
2023/08/12 22:30:03;;;;;;;9.90;3.40;;;;;;;;;;6293175;22;20074;-89
2023/08/12 22:32:45;;;;;;;8.13;3.28;;;;;;;;;;6319555;22;20057;-89
2023/08/12 22:35:19;;;;;;;14.32;3.63;;;;;;;;;;6320237;22;20023;-89
2023/08/12 22:37:47;;;;;;;13.63;3.15;;;;;;;;;;6320067;22;20027;-89
2023/08/12 22:40:15;;;;;;;10.50;3.33;;;;;;;;;;6292745;22;20062;-88
2023/08/12 22:42:45;;;;;;;12.80;3.53;;;;;;;;;;6318357;22;20279;-87
2023/08/12 22:45:17;;;;;;;5.47;3.00;;;;;;;;;;6291784;22;20062;-86
2023/08/12 22:48:01;;;;;;;;;;;;;;;;;;;;;
2023/08/12 22:50:29;;;;;;;6.15;3.10;;;;;;;;;;6321237;22;20444;-90
2023/08/12 22:53:12;;;;;;;12.00;3.40;;;;;;;;;;6296947;22;20451;-88
2023/08/12 22:55:55;;;;;;;11.90;3.10;;;;;;;;;;6328530;22;20015;-89
2023/08/12 22:58:41;;;;;;;11.23;3.50;;;;;;;;;;6292546;22;20027;-88
2023/08/12 23:01:22;;;;;;;14.75;3.42;;;;;;;;;;6290962;22;20027;-89
2023/08/12 23:03:52;;;;;;;13.57;3.70;;;;;;;;;;6286110;22;20167;-89
2023/08/12 23:06:20;;;;;;;11.52;3.28;;;;;;;;;;6328562;22;20027;-89
2023/08/12 23:09:06;;;;;;;6.70;2.97;;;;;;;;;;6308520;22;20040;-89
2023/08/12 23:11:55;;;;;;;13.57;3.22;;;;;;;;;;6330120;22;20077;-88
2023/08/12 23:14:23;;;;;;;10.95;3.33;;;;;;;;;;6292897;22;20256;-88
2023/08/12 23:16:51;;;;;;;12.82;3.67;;;;;;;;;;6315514;22;20082;-88
2023/08/12 23:19:21;;;;;;;16.45;3.78;;;;;;;;;;6287901;22;20164;-88
2023/08/12 23:22:04;;;;;;;9.05;4.30;;;;;;;;;;6255221;22;20023;-87
2023/08/12 23:24:35;;;;;;;8.38;3.45;;;;;;;;;;6287532;22;20485;-88
2023/08/12 23:27:06;;;;;;;6.82;3.05;;;;;;;;;;6314027;22;20409;-88
2023/08/12 23:29:37;;;;;;;13.13;3.38;;;;;;;;;;6315323;22;20450;-87
2023/08/12 23:32:05;;;;;;;10.32;3.88;;;;;;;;;;6289358;22;20390;-88
2023/08/12 23:34:36;;;;;;;8.75;3.72;;;;;;;;;;6315007;22;20029;-88
2023/08/12 23:37:07;;;;;;;17.40;3.92;;;;;;;;;;6288255;22;20084;-88
2023/08/12 23:39:37;;;;;;;10.27;3.40;;;;;;;;;;6288205;22;20130;-88
2023/08/12 23:42:06;;;;;;;10.15;3.65;;;;;;;;;;6315624;22;20429;-89
2023/08/12 23:44:36;;;;;;;8.77;3.60;;;;;;;;;;6316026;22;20071;-88
2023/08/12 23:47:06;;;;;;;9.32;3.65;;;;;;;;;;6290509;22;20072;-88
2023/08/12 23:49:34;;;;;;;12.25;4.15;;;;;;;;;;6288699;22;20055;-89
2023/08/12 23:52:03;;;;;;;13.00;3.72;;;;;;;;;;6315527;22;20094;-88
2023/08/12 23:54:31;;;;;;;7.72;3.40;;;;;;;;;;6314401;22;20075;-88
2023/08/12 23:57:03;;;;;;;9.75;3.58;;;;;;;;;;6290078;22;20046;-89
2023/08/12 23:59:34;;;;;;;13.18;4.10;;;;;;;;;;6290064;22;20256;-88
